Time;durP1;ratioP1;P1;durP2;ratioP2;P2;SDS_P1;SDS_P2;PMS_P1;PMS_P2;Temp;Humidity;BMP_temperature;BMP_pressure;BME280_temperature;BME280_humidity;BME280_pressure;Samples;Min_cycle;Max_cycle;Signal;HPM_P1;HPM_P2
2023/07/22 00:02:03;;;;;;;7.38;2.15;;;17.50;99.90;;;;;;5105216;28;20255;-64
2023/07/22 00:04:31;;;;;;;7.78;2.30;;;17.50;99.90;;;;;;5120692;28;20195;-64
2023/07/22 00:06:59;;;;;;;3.95;2.35;;;17.50;99.90;;;;;;5109078;28;20259;-63
2023/07/22 00:09:27;;;;;;;2.47;2.20;;;17.50;99.90;;;;;;5116669;28;20204;-64
2023/07/22 00:11:55;;;;;;;2.45;2.17;;;17.40;99.90;;;;;;5116570;28;20227;-64
2023/07/22 00:14:24;;;;;;;2.45;2.10;;;17.30;99.90;;;;;;5117386;28;20237;-64
2023/07/22 00:16:52;;;;;;;2.95;1.98;;;17.30;99.90;;;;;;5121711;28;20224;-63
2023/07/22 00:19:20;;;;;;;1.52;1.48;;;17.30;99.90;;;;;;5111067;28;20202;-63
2023/07/22 00:21:49;;;;;;;2.22;2.10;;;17.30;99.90;;;;;;5113706;28;20220;-63
2023/07/22 00:24:17;;;;;;;3.50;1.98;;;17.20;99.90;;;;;;5118765;28;20249;-62
2023/07/22 00:26:45;;;;;;;3.20;1.92;;;17.20;99.90;;;;;;5108070;28;20210;-62
2023/07/22 00:29:13;;;;;;;1.85;1.75;;;17.20;99.90;;;;;;5120447;28;20222;-62
2023/07/22 00:31:42;;;;;;;1.92;1.83;;;17.20;99.90;;;;;;5116213;28;20263;-62
2023/07/22 00:34:10;;;;;;;2.40;2.20;;;17.20;99.90;;;;;;5112151;28;20226;-63
2023/07/22 00:36:38;;;;;;;2.10;1.92;;;17.10;99.90;;;;;;5122637;28;20199;-64
2023/07/22 00:39:06;;;;;;;2.88;2.17;;;17.10;99.90;;;;;;5110861;28;20203;-64
2023/07/22 00:41:34;;;;;;;2.35;2.20;;;17.00;99.90;;;;;;5119811;28;20224;-64
2023/07/22 00:44:02;;;;;;;2.95;2.67;;;17.00;99.90;;;;;;5121719;28;20199;-64
2023/07/22 00:46:30;;;;;;;3.88;1.77;;;17.00;99.90;;;;;;5112992;28;20225;-64
2023/07/22 00:49:00;;;;;;;3.13;2.35;;;16.90;99.90;;;;;;5125060;28;20207;-64
2023/07/22 00:51:28;;;;;;;6.38;2.30;;;16.90;99.90;;;;;;5116139;28;20220;-63
2023/07/22 00:53:56;;;;;;;3.55;2.03;;;16.90;99.90;;;;;;5115277;28;20204;-63
2023/07/22 00:56:23;;;;;;;2.15;2.05;;;16.90;99.90;;;;;;5122974;28;20281;-63
2023/07/22 00:58:52;;;;;;;2.63;2.05;;;16.90;99.90;;;;;;5108105;28;20196;-63
2023/07/22 01:01:20;;;;;;;5.88;2.13;;;16.90;99.90;;;;;;5105873;28;20216;-64
2023/07/22 01:03:48;;;;;;;4.10;1.83;;;16.90;99.90;;;;;;5117490;28;20634;-64
2023/07/22 01:06:18;;;;;;;2.95;2.28;;;16.90;99.90;;;;;;5110763;28;20195;-62
2023/07/22 01:08:46;;;;;;;2.50;2.30;;;16.90;99.90;;;;;;5122334;28;20212;-62
2023/07/22 01:11:15;;;;;;;2.20;1.90;;;16.80;99.90;;;;;;5110038;28;20258;-63
2023/07/22 01:13:43;;;;;;;3.00;2.17;;;16.80;99.90;;;;;;5112131;28;20204;-63
2023/07/22 01:16:11;;;;;;;4.43;1.80;;;16.70;99.90;;;;;;5118188;28;20686;-62
2023/07/22 01:18:38;;;;;;;4.22;2.05;;;16.70;99.90;;;;;;5106790;28;20200;-63
2023/07/22 01:21:06;;;;;;;3.63;2.28;;;16.70;99.90;;;;;;5118928;28;20254;-63
2023/07/22 01:23:36;;;;;;;3.20;2.25;;;16.70;99.90;;;;;;5114422;28;20229;-66
2023/07/22 01:26:04;;;;;;;2.78;2.13;;;16.70;99.90;;;;;;5113022;28;20196;-62
2023/07/22 01:28:32;;;;;;;2.80;1.88;;;16.70;99.90;;;;;;5123132;28;20211;-64
2023/07/22 01:31:00;;;;;;;2.53;2.30;;;16.60;99.90;;;;;;5110916;28;20230;-64
2023/07/22 01:33:28;;;;;;;2.10;1.95;;;16.60;99.90;;;;;;5120178;28;20225;-62
2023/07/22 01:35:57;;;;;;;3.17;2.15;;;16.50;99.90;;;;;;5117920;28;20273;-64
2023/07/22 01:38:25;;;;;;;2.33;2.00;;;16.50;99.90;;;;;;5110512;28;20261;-62
2023/07/22 01:40:54;;;;;;;2.47;2.30;;;16.50;99.90;;;;;;5123274;28;20233;-62
2023/07/22 01:43:22;;;;;;;2.78;2.58;;;16.50;99.90;;;;;;5114308;28;20637;-63
2023/07/22 01:45:50;;;;;;;5.35;2.10;;;16.40;99.90;;;;;;5114725;28;20192;-63
2023/07/22 01:48:18;;;;;;;5.60;2.67;;;16.40;99.90;;;;;;5120852;28;20203;-63
2023/07/22 01:50:47;;;;;;;3.80;2.33;;;16.40;99.90;;;;;;5108034;28;20201;-64
2023/07/22 01:53:15;;;;;;;3.25;2.08;;;16.40;99.90;;;;;;5119282;28;20263;-62
2023/07/22 01:55:44;;;;;;;2.25;2.15;;;16.30;99.90;;;;;;5115863;28;20224;-63
2023/07/22 01:58:13;;;;;;;2.17;2.00;;;16.20;99.90;;;;;;5111354;28;20197;-63
2023/07/22 02:00:41;;;;;;;2.15;2.03;;;16.20;99.90;;;;;;5105293;28;20212;-62
2023/07/22 02:03:09;;;;;;;2.92;2.47;;;16.20;99.90;;;;;;5111493;28;20233;-62
2023/07/22 02:05:37;;;;;;;2.45;2.25;;;16.10;99.90;;;;;;5117265;28;20207;-62
2023/07/22 02:08:05;;;;;;;3.58;2.63;;;16.10;99.90;;;;;;5120176;28;20204;-62
2023/07/22 02:10:33;;;;;;;2.38;2.17;;;16.10;99.90;;;;;;5109571;28;20210;-62
2023/07/22 02:13:03;;;;;;;2.85;2.70;;;16.00;99.90;;;;;;5121709;28;20242;-64
2023/07/22 02:15:32;;;;;;;2.88;2.35;;;15.90;99.90;;;;;;5114206;28;20222;-63
2023/07/22 02:18:00;;;;;;;2.22;2.13;;;15.90;99.90;;;;;;5114071;28;20722;-63
2023/07/22 02:20:29;;;;;;;5.40;2.22;;;15.80;99.90;;;;;;5122937;28;20188;-62
2023/07/22 02:22:57;;;;;;;3.00;2.25;;;15.80;99.90;;;;;;5108914;28;20211;-64
2023/07/22 02:25:25;;;;;;;2.88;2.17;;;15.70;99.90;;;;;;5117611;28;20208;-63
2023/07/22 02:27:53;;;;;;;2.10;2.00;;;15.70;99.90;;;;;;5116861;28;20335;-63
2023/07/22 02:30:21;;;;;;;3.55;2.40;;;15.70;99.90;;;;;;5110062;28;20200;-63
2023/07/22 02:35:18;;;;;;;1.88;1.77;;;15.60;99.90;;;;;;5010822;28;20223;-63
2023/07/22 02:37:46;;;;;;;2.35;2.25;;;15.60;99.90;;;;;;5013409;28;20216;-63
2023/07/22 02:40:14;;;;;;;4.35;2.22;;;15.50;99.90;;;;;;5013094;28;20231;-63
2023/07/22 02:42:42;;;;;;;2.58;2.22;;;15.50;99.90;;;;;;5014833;28;20647;-63
2023/07/22 02:45:10;;;;;;;2.72;2.60;;;15.40;99.90;;;;;;5026593;28;20203;-63
2023/07/22 02:47:38;;;;;;;2.65;2.40;;;15.40;99.90;;;;;;5022776;28;20202;-63
2023/07/22 02:50:07;;;;;;;2.60;2.40;;;15.30;99.90;;;;;;5019250;28;20214;-63
2023/07/22 02:52:36;;;;;;;2.05;1.95;;;15.30;99.90;;;;;;5029253;28;20230;-63
2023/07/22 02:55:06;;;;;;;3.22;2.33;;;15.20;99.90;;;;;;5017133;28;20264;-64
2023/07/22 02:57:34;;;;;;;5.10;2.35;;;15.20;99.90;;;;;;5023405;28;20318;-63
2023/07/22 03:00:07;;;;;;;4.00;2.42;;;15.20;99.90;;;;;;5026301;28;20681;-63
2023/07/22 03:02:35;;;;;;;2.50;2.30;;;15.10;99.90;;;;;;5015590;28;20230;-63
2023/07/22 03:05:06;;;;;;;3.65;2.40;;;15.10;99.90;;;;;;5027267;28;20203;-63
2023/07/22 03:07:36;;;;;;;2.28;2.17;;;15.10;99.90;;;;;;5021763;28;20277;-63
2023/07/22 03:10:04;;;;;;;2.45;2.35;;;15.00;99.90;;;;;;5019260;28;20207;-63
2023/07/22 03:12:32;;;;;;;2.40;2.22;;;15.00;99.90;;;;;;5028932;28;20218;-63
2023/07/22 03:15:01;;;;;;;2.80;2.60;;;15.00;99.90;;;;;;5016714;28;20198;-63
2023/07/22 03:17:29;;;;;;;3.53;2.40;;;15.00;99.90;;;;;;5023927;28;20227;-63
2023/07/22 03:19:57;;;;;;;2.33;2.22;;;14.90;99.90;;;;;;5024562;28;20272;-63
2023/07/22 03:22:25;;;;;;;4.32;2.40;;;14.80;99.90;;;;;;5016121;28;20663;-63
2023/07/22 03:24:54;;;;;;;2.80;2.60;;;14.80;99.90;;;;;;5028486;28;20298;-63
2023/07/22 03:27:22;;;;;;;4.32;2.63;;;14.80;99.90;;;;;;5019747;28;20199;-63
2023/07/22 03:29:50;;;;;;;4.93;2.42;;;14.80;99.90;;;;;;5020883;28;20676;-63
2023/07/22 03:32:18;;;;;;;2.60;2.40;;;14.80;99.90;;;;;;5027164;28;20305;-63
2023/07/22 03:34:46;;;;;;;2.00;1.90;;;14.80;99.90;;;;;;5014907;28;20673;-63
2023/07/22 03:37:14;;;;;;;4.38;2.70;;;14.80;99.90;;;;;;5025524;28;20680;-63
2023/07/22 03:39:42;;;;;;;2.90;2.70;;;14.80;99.90;;;;;;5022330;28;20272;-63
2023/07/22 03:42:12;;;;;;;2.30;2.20;;;14.80;99.90;;;;;;5018063;28;20667;-63
2023/07/22 03:44:40;;;;;;;2.20;2.10;;;14.70;99.90;;;;;;5027830;28;20675;-63
2023/07/22 03:47:08;;;;;;;2.60;2.47;;;14.70;99.90;;;;;;5017566;28;20198;-63
2023/07/22 03:49:36;;;;;;;2.50;2.40;;;14.70;99.90;;;;;;5022290;28;20293;-63
2023/07/22 03:52:05;;;;;;;2.50;2.28;;;14.70;99.90;;;;;;5025263;28;20704;-63
2023/07/22 03:54:33;;;;;;;2.80;2.53;;;14.70;99.90;;;;;;5015211;28;20302;-63
2023/07/22 03:57:00;;;;;;;3.95;2.63;;;14.70;99.90;;;;;;5027136;28;20215;-63
2023/07/22 03:59:30;;;;;;;3.65;2.40;;;14.60;99.90;;;;;;5021020;28;20213;-63
2023/07/22 04:01:58;;;;;;;2.30;2.20;;;14.60;99.90;;;;;;5019013;28;20230;-63
2023/07/22 04:04:26;;;;;;;2.38;2.17;;;14.60;99.90;;;;;;5011710;28;20207;-63
2023/07/22 04:06:54;;;;;;;2.53;2.33;;;14.60;99.90;;;;;;5005956;28;20639;-63
2023/07/22 04:09:22;;;;;;;3.88;2.65;;;14.60;99.90;;;;;;5019051;28;20282;-63
2023/07/22 04:11:49;;;;;;;2.72;2.53;;;14.50;99.90;;;;;;5020305;28;20223;-63
2023/07/22 04:14:17;;;;;;;3.00;2.80;;;14.50;99.90;;;;;;5026204;28;20234;-63
2023/07/22 04:16:46;;;;;;;3.65;3.17;;;14.50;99.90;;;;;;5014430;28;20233;-63
2023/07/22 04:19:16;;;;;;;3.72;2.83;;;14.40;99.90;;;;;;5014533;28;20225;-63
2023/07/22 04:21:44;;;;;;;5.47;3.20;;;14.40;99.90;;;;;;5021799;28;20254;-63
2023/07/22 04:24:12;;;;;;;3.00;2.90;;;14.40;99.90;;;;;;5017007;28;20286;-63
2023/07/22 04:26:42;;;;;;;2.60;2.50;;;14.40;99.90;;;;;;5027577;28;20257;-63
2023/07/22 04:29:11;;;;;;;2.70;2.60;;;14.40;99.90;;;;;;5017177;28;20210;-63
2023/07/22 04:31:39;;;;;;;4.07;2.97;;;14.40;99.90;;;;;;5025530;28;20783;-63
2023/07/22 04:34:09;;;;;;;5.15;2.70;;;14.40;99.90;;;;;;5031285;28;20311;-63
2023/07/22 04:36:37;;;;;;;3.40;2.50;;;14.40;99.90;;;;;;5014414;28;20319;-63
2023/07/22 04:39:05;;;;;;;5.90;2.78;;;14.30;99.90;;;;;;5025648;28;20203;-63
2023/07/22 04:41:33;;;;;;;2.80;2.60;;;14.40;99.90;;;;;;5020042;28;20325;-63
2023/07/22 04:44:01;;;;;;;3.00;2.80;;;14.40;99.90;;;;;;5018755;28;20207;-63
2023/07/22 04:46:30;;;;;;;2.53;2.33;;;14.50;99.90;;;;;;5027573;28;20264;-63
2023/07/22 04:48:58;;;;;;;5.40;2.60;;;14.50;99.90;;;;;;5015551;28;20199;-63
2023/07/22 04:51:28;;;;;;;3.15;2.58;;;14.50;99.90;;;;;;5023253;28;20269;-63
2023/07/22 04:53:56;;;;;;;2.63;2.42;;;14.60;99.90;;;;;;5023098;28;20242;-63
2023/07/22 04:56:24;;;;;;;3.13;2.80;;;14.60;99.90;;;;;;5015261;28;20207;-63
2023/07/22 04:58:52;;;;;;;2.67;2.42;;;14.60;99.90;;;;;;5031032;28;20207;-63
2023/07/22 05:01:20;;;;;;;2.60;2.40;;;14.70;99.90;;;;;;5024041;28;20311;-63
2023/07/22 05:03:48;;;;;;;3.28;2.97;;;14.70;99.90;;;;;;5022028;28;20203;-63
2023/07/22 05:06:16;;;;;;;2.90;2.80;;;14.80;99.90;;;;;;5016108;28;20690;-63
2023/07/22 05:08:45;;;;;;;6.45;3.25;;;14.80;99.90;;;;;;5027403;28;20753;-63
2023/07/22 05:11:13;;;;;;;5.05;2.95;;;14.90;99.90;;;;;;5017740;28;20206;-63
2023/07/22 05:13:41;;;;;;;4.18;3.30;;;15.00;99.90;;;;;;5021142;28;20203;-63
2023/07/22 05:16:09;;;;;;;5.25;3.00;;;15.00;99.90;;;;;;5024733;28;20238;-63
2023/07/22 05:18:38;;;;;;;4.82;2.55;;;15.10;99.90;;;;;;5014730;28;20332;-63
2023/07/22 05:21:06;;;;;;;2.63;2.53;;;15.10;99.90;;;;;;5025381;28;20207;-63
2023/07/22 05:23:34;;;;;;;6.65;2.47;;;15.10;99.90;;;;;;5020360;28;20366;-63
2023/07/22 05:26:04;;;;;;;3.00;2.80;;;15.20;99.90;;;;;;5018218;28;20203;-63
2023/07/22 05:28:31;;;;;;;2.67;2.47;;;15.20;99.90;;;;;;5031036;28;20704;-63
2023/07/22 05:30:59;;;;;;;4.38;3.00;;;15.30;99.90;;;;;;5018608;28;20274;-63
2023/07/22 05:33:27;;;;;;;2.88;2.65;;;15.30;99.90;;;;;;5026309;28;20215;-63
2023/07/22 05:35:55;;;;;;;6.47;2.70;;;15.30;99.90;;;;;;5025845;28;20211;-63
2023/07/22 05:38:23;;;;;;;2.65;2.55;;;15.30;99.90;;;;;;5018803;28;20298;-63
2023/07/22 05:40:52;;;;;;;4.07;3.78;;;15.40;99.90;;;;;;5030691;28;20254;-63
2023/07/22 05:43:22;;;;;;;4.70;4.30;;;15.50;99.90;;;;;;5021407;28;20258;-63
2023/07/22 05:45:49;;;;;;;4.60;4.18;;;15.60;99.90;;;;;;5022563;28;20261;-62
2023/07/22 05:48:17;;;;;;;6.53;4.68;;;15.70;99.90;;;;;;5029118;28;20635;-62
2023/07/22 05:50:45;;;;;;;8.35;4.88;;;15.80;99.90;;;;;;5017638;28;20238;-63
2023/07/22 05:53:13;;;;;;;5.03;4.47;;;15.80;99.90;;;;;;5027897;28;20262;-63
2023/07/22 05:55:41;;;;;;;5.47;5.07;;;15.90;99.90;;;;;;5023840;28;20202;-63
2023/07/22 05:58:16;;;;;;;5.63;4.50;;;16.00;99.90;;;;;;5020299;28;20254;-63
2023/07/22 06:00:45;;;;;;;6.20;4.60;;;16.10;99.90;;;;;;5030280;28;20260;-57
2023/07/22 06:03:13;;;;;;;5.85;4.65;;;16.10;99.90;;;;;;5019850;28;20312;-57
2023/07/22 06:05:41;;;;;;;6.85;4.38;;;16.30;99.90;;;;;;5013142;28;20266;-58
2023/07/22 06:08:09;;;;;;;7.80;4.07;;;16.40;99.90;;;;;;5013889;28;20313;-59
2023/07/22 06:10:37;;;;;;;6.13;4.78;;;16.50;99.90;;;;;;5022466;28;20203;-59
2023/07/22 06:13:06;;;;;;;9.15;5.07;;;16.60;99.90;;;;;;5022911;28;20248;-57
2023/07/22 06:15:33;;;;;;;8.60;5.05;;;16.80;99.90;;;;;;5024397;28;20207;-58
2023/07/22 06:18:03;;;;;;;7.25;4.72;;;16.90;99.90;;;;;;5026369;28;20257;-57
2023/07/22 06:20:31;;;;;;;5.25;4.45;;;17.00;99.90;;;;;;5017148;28;20235;-59
2023/07/22 06:22:59;;;;;;;5.70;4.70;;;17.10;99.90;;;;;;5029207;28;20255;-59
2023/07/22 06:25:27;;;;;;;5.60;4.70;;;17.10;99.90;;;;;;5021051;28;20281;-58
2023/07/22 06:27:55;;;;;;;5.15;4.28;;;17.20;99.90;;;;;;5021570;28;20286;-58
2023/07/22 06:30:23;;;;;;;4.57;4.18;;;17.30;99.90;;;;;;5028885;28;20651;-56
2023/07/22 06:32:51;;;;;;;7.03;4.65;;;17.40;99.90;;;;;;5016613;28;20222;-57
2023/07/22 06:35:20;;;;;;;5.70;4.60;;;17.50;99.90;;;;;;5025962;28;20206;-57
2023/07/22 06:37:48;;;;;;;4.55;4.15;;;17.50;99.90;;;;;;5024134;28;20256;-58
2023/07/22 06:40:16;;;;;;;5.03;4.43;;;17.50;99.90;;;;;;5018182;28;20693;-59
2023/07/22 06:42:43;;;;;;;6.22;4.22;;;17.60;99.90;;;;;;5029569;28;20790;-58
2023/07/22 06:45:11;;;;;;;5.32;3.80;;;17.70;99.90;;;;;;5018771;28;20281;-57
2023/07/22 06:47:39;;;;;;;5.68;4.22;;;17.70;99.90;;;;;;5023346;28;20677;-57
2023/07/22 06:50:07;;;;;;;4.82;4.32;;;17.80;99.90;;;;;;5026576;28;20202;-57
2023/07/22 06:52:37;;;;;;;4.40;3.63;;;17.80;99.90;;;;;;5016392;28;20269;-57
2023/07/22 06:55:05;;;;;;;5.88;4.18;;;17.80;99.90;;;;;;5020116;28;20234;-57
2023/07/22 06:57:34;;;;;;;3.92;3.53;;;17.80;99.90;;;;;;5019809;28;20242;-55
2023/07/22 07:00:01;;;;;;;6.70;2.97;;;17.90;99.90;;;;;;5026758;28;20213;-54
2023/07/22 07:02:30;;;;;;;4.25;3.78;;;18.00;99.90;;;;;;5016107;28;20218;-56
2023/07/22 07:04:58;;;;;;;4.35;4.00;;;18.10;99.90;;;;;;5028141;28;20195;-58
2023/07/22 07:07:26;;;;;;;4.63;3.33;;;18.20;99.90;;;;;;5020608;28;20226;-59
2023/07/22 07:09:56;;;;;;;5.07;3.72;;;18.20;99.90;;;;;;5020670;28;20286;-54
2023/07/22 07:12:23;;;;;;;8.25;4.40;;;18.40;99.90;;;;;;5028580;28;20309;-56
2023/07/22 07:14:52;;;;;;;5.35;3.78;;;18.40;99.90;;;;;;5015827;28;20286;-55
2023/07/22 07:17:19;;;;;;;3.90;3.58;;;18.40;99.90;;;;;;5025314;28;20286;-55
2023/07/22 07:19:47;;;;;;;8.00;3.97;;;18.50;99.90;;;;;;5022946;28;20232;-54
2023/07/22 07:22:15;;;;;;;7.13;3.55;;;18.60;99.90;;;;;;5017655;28;20314;-56
2023/07/22 07:24:43;;;;;;;4.43;4.03;;;18.70;99.90;;;;;;5029829;28;20679;-58
2023/07/22 07:27:12;;;;;;;4.28;3.97;;;18.90;99.90;;;;;;5030743;28;20688;-58
2023/07/22 07:29:40;;;;;;;3.72;3.40;;;19.00;99.90;;;;;;5026351;28;20209;-53
2023/07/22 07:32:11;;;;;;;3.88;3.08;;;19.10;99.90;;;;;;5032160;28;20321;-56
2023/07/22 07:34:39;;;;;;;5.13;3.70;;;19.30;99.90;;;;;;5029866;28;20632;-59
2023/07/22 07:37:07;;;;;;;5.47;3.40;;;19.40;99.90;;;;;;5017152;28;20241;-55
2023/07/22 07:39:35;;;;;;;6.70;3.47;;;19.60;99.90;;;;;;5022276;28;20278;-56
2023/07/22 07:42:03;;;;;;;3.70;3.40;;;19.60;99.90;;;;;;5025035;28;20249;-54
2023/07/22 07:44:32;;;;;;;4.20;3.55;;;19.70;99.90;;;;;;5031102;28;20244;-54
2023/07/22 07:47:00;;;;;;;3.90;3.50;;;19.70;99.90;;;;;;5027079;28;20202;-57
2023/07/22 07:49:28;;;;;;;3.70;3.50;;;19.70;99.90;;;;;;5011418;28;20256;-56
2023/07/22 07:51:56;;;;;;;3.65;3.35;;;19.70;99.90;;;;;;5011984;28;20284;-57
2023/07/22 07:54:24;;;;;;;4.25;3.85;;;19.80;99.90;;;;;;5027442;28;20206;-57
2023/07/22 07:56:52;;;;;;;4.88;3.95;;;19.80;99.90;;;;;;5014959;28;20685;-60
2023/07/22 07:59:20;;;;;;;4.50;4.20;;;19.90;99.90;;;;;;5030976;28;20222;-56
2023/07/22 08:01:49;;;;;;;4.05;3.75;;;20.00;99.90;;;;;;5020883;28;20262;-55
2023/07/22 08:04:17;;;;;;;4.72;3.85;;;20.00;99.90;;;;;;5026320;28;20690;-57
2023/07/22 08:06:45;;;;;;;3.55;3.25;;;20.10;99.90;;;;;;5015067;28;20209;-56
2023/07/22 08:09:18;;;;;;;3.85;3.40;;;20.20;99.90;;;;;;5025527;28;20193;-56
2023/07/22 08:11:46;;;;;;;4.60;3.00;;;20.40;99.90;;;;;;5011469;28;20248;-56
2023/07/22 08:14:14;;;;;;;4.47;3.05;;;20.50;99.90;;;;;;5011464;28;20691;-56
2023/07/22 08:16:42;;;;;;;4.50;2.60;;;20.50;99.90;;;;;;5027690;28;20293;-56
2023/07/22 08:19:11;;;;;;;4.38;2.90;;;20.50;99.90;;;;;;5017316;28;20214;-55
2023/07/22 08:21:39;;;;;;;3.35;2.63;;;20.50;99.90;;;;;;5021595;28;20305;-57
2023/07/22 08:24:08;;;;;;;3.30;2.63;;;20.50;99.90;;;;;;5024728;28;20237;-57
2023/07/22 08:26:36;;;;;;;2.53;2.40;;;20.50;99.90;;;;;;5014376;28;20693;-57
2023/07/22 08:29:04;;;;;;;4.10;2.60;;;20.60;99.90;;;;;;5026411;28;20222;-55
2023/07/22 08:31:32;;;;;;;2.97;2.78;;;20.60;99.90;;;;;;5020289;28;20347;-58
2023/07/22 08:34:00;;;;;;;6.32;2.80;;;20.70;99.90;;;;;;5075650;22;20324;-59
2023/07/22 08:36:29;;;;;;;4.25;2.90;;;20.80;99.90;;;;;;5053920;28;20241;-58
2023/07/22 08:38:58;;;;;;;4.20;2.60;;;20.90;99.90;;;;;;5067196;28;20217;-59
2023/07/22 08:41:26;;;;;;;2.97;2.75;;;21.00;99.90;;;;;;5059437;28;20200;-58
2023/07/22 08:43:54;;;;;;;2.80;2.53;;;21.10;99.90;;;;;;5059651;28;20253;-58
2023/07/22 08:46:21;;;;;;;2.70;2.50;;;21.20;99.90;;;;;;5066631;28;20228;-58
2023/07/22 08:48:51;;;;;;;3.10;2.90;;;21.40;99.90;;;;;;5054303;28;20193;-59
2023/07/22 08:51:19;;;;;;;3.10;2.90;;;21.50;99.90;;;;;;5059526;28;20193;-59
2023/07/22 08:53:49;;;;;;;2.67;2.58;;;21.60;99.90;;;;;;5061215;28;20321;-59
2023/07/22 08:56:36;;;;;;;3.05;2.60;;;21.80;99.90;;;;;;5054309;28;20197;-58
2023/07/22 08:59:05;;;;;;;5.35;2.35;;;22.00;99.90;;;;;;5070123;28;20252;-59
2023/07/22 09:01:33;;;;;;;3.65;2.03;;;22.20;99.90;;;;;;5063514;28;20259;-59
2023/07/22 09:04:01;;;;;;;5.22;3.08;;;22.30;99.90;;;;;;5067799;28;20252;-59
2023/07/22 09:06:29;;;;;;;4.75;2.85;;;22.30;99.90;;;;;;5057942;28;20208;-59
2023/07/22 09:08:58;;;;;;;4.60;2.70;;;22.40;99.90;;;;;;5069812;28;20672;-60
2023/07/22 09:11:26;;;;;;;11.52;3.00;;;22.40;99.90;;;;;;5059357;28;20331;-57
2023/07/22 09:13:54;;;;;;;3.47;2.50;;;22.50;99.90;;;;;;5066453;28;20700;-58
2023/07/22 09:16:22;;;;;;;5.13;3.20;;;22.60;99.90;;;;;;5058341;28;20201;-59
2023/07/22 09:18:50;;;;;;;3.10;2.70;;;22.50;99.90;;;;;;5070929;28;20201;-59
2023/07/22 09:21:18;;;;;;;10.07;2.85;;;22.50;99.90;;;;;;5061478;28;20231;-59
2023/07/22 09:23:46;;;;;;;3.50;2.80;;;22.70;99.90;;;;;;5063753;28;20267;-59
2023/07/22 09:26:16;;;;;;;7.15;3.13;;;23.00;99.90;;;;;;5068634;28;20627;-58
2023/07/22 09:28:54;;;;;;;3.75;3.42;;;23.30;99.90;;;;;;5057785;28;20282;-58
2023/07/22 09:31:23;;;;;;;7.72;3.25;;;23.20;99.90;;;;;;5066600;28;20656;-59
2023/07/22 09:33:51;;;;;;;4.10;3.42;;;23.00;99.90;;;;;;5065620;28;20224;-59
2023/07/22 09:36:18;;;;;;;2.92;2.72;;;22.80;99.90;;;;;;5058636;28;20291;-58
2023/07/22 09:38:46;;;;;;;4.72;2.80;;;22.60;99.90;;;;;;5070820;28;20240;-59
2023/07/22 09:41:17;;;;;;;3.95;2.78;;;22.50;99.90;;;;;;5053884;28;20700;-59
2023/07/22 09:43:47;;;;;;;3.47;2.78;;;22.50;99.90;;;;;;5064405;28;20316;-59
2023/07/22 09:46:15;;;;;;;6.57;3.20;;;22.60;99.90;;;;;;5058981;28;20233;-57
2023/07/22 09:48:53;;;;;;;5.35;3.65;;;22.60;99.90;;;;;;5041004;28;20594;-58
2023/07/22 09:51:22;;;;;;;3.85;3.45;;;22.60;99.90;;;;;;5073694;28;20583;-58
2023/07/22 09:54:00;;;;;;;5.30;3.13;;;22.60;99.90;;;;;;5062494;28;20799;-57
2023/07/22 09:56:30;;;;;;;3.70;3.40;;;22.50;99.90;;;;;;5070242;28;20283;-58
2023/07/22 09:58:58;;;;;;;6.88;3.20;;;22.50;99.90;;;;;;5071578;28;20676;-58
2023/07/22 10:01:26;;;;;;;7.68;3.22;;;22.60;99.90;;;;;;5065872;28;20308;-59
2023/07/22 10:03:55;;;;;;;3.60;3.30;;;22.80;99.90;;;;;;5065592;28;20220;-58
2023/07/22 10:06:24;;;;;;;4.40;2.92;;;23.10;99.90;;;;;;5057755;28;20280;-59
2023/07/22 10:08:53;;;;;;;2.90;2.70;;;23.60;99.90;;;;;;5069863;28;20267;-58
2023/07/22 10:11:21;;;;;;;4.78;3.05;;;24.10;99.90;;;;;;5060850;28;20290;-58
2023/07/22 10:13:50;;;;;;;3.08;2.80;;;24.50;99.90;;;;;;5073315;28;20260;-58
2023/07/22 10:16:18;;;;;;;5.13;3.53;;;24.80;99.90;;;;;;5057985;28;20233;-60
2023/07/22 10:18:46;;;;;;;5.35;3.13;;;25.10;99.90;;;;;;5072475;28;20205;-59
2023/07/22 10:21:14;;;;;;;3.13;2.42;;;25.20;99.90;;;;;;5066902;28;20213;-59
2023/07/22 10:23:42;;;;;;;3.00;2.80;;;25.30;99.90;;;;;;5063437;28;20256;-59
2023/07/22 10:26:13;;;;;;;6.25;3.00;;;25.40;99.90;;;;;;5058968;28;20290;-60
2023/07/22 10:28:42;;;;;;;2.92;2.58;;;25.40;99.90;;;;;;5069701;28;20617;-58
2023/07/22 10:31:12;;;;;;;6.45;2.95;;;25.40;99.90;;;;;;5058907;28;20201;-58
2023/07/22 10:33:40;;;;;;;4.70;2.90;;;25.40;99.90;;;;;;5063120;28;20744;-58
2023/07/22 10:36:09;;;;;;;4.00;3.22;;;25.30;99.90;;;;;;5066922;28;20204;-64
2023/07/22 10:38:37;;;;;;;3.20;2.65;;;25.10;99.90;;;;;;5056564;28;20298;-64
2023/07/22 10:41:12;;;;;;;9.95;3.08;;;24.90;99.90;;;;;;5067940;28;20253;-64
2023/07/22 10:43:40;;;;;;;3.38;2.88;;;24.50;99.90;;;;;;5063183;28;20220;-64
2023/07/22 10:46:12;;;;;;;3.28;2.90;;;24.30;99.90;;;;;;5058513;28;20202;-64
2023/07/22 10:48:41;;;;;;;3.25;3.00;;;24.20;99.90;;;;;;5069242;28;20211;-64
2023/07/22 10:51:11;;;;;;;3.22;2.83;;;24.10;99.90;;;;;;5058597;28;20372;-64
2023/07/22 10:53:42;;;;;;;6.15;2.72;;;24.00;99.90;;;;;;5062081;28;20256;-64
2023/07/22 10:56:14;;;;;;;3.63;2.92;;;23.90;99.90;;;;;;5065144;28;20243;-64
2023/07/22 10:58:59;;;;;;;5.68;3.10;;;23.70;99.90;;;;;;5054043;28;20247;-64
2023/07/22 11:01:37;;;;;;;3.25;2.88;;;23.60;99.90;;;;;;5060742;28;20289;-64
2023/07/22 11:04:22;;;;;;;3.85;2.95;;;23.50;99.90;;;;;;5059856;28;20223;-64
2023/07/22 11:06:54;;;;;;;6.10;3.22;;;23.70;99.90;;;;;;5068965;28;20197;-64
2023/07/22 11:09:39;;;;;;;4.15;2.92;;;24.10;99.90;;;;;;5060017;28;20684;-64
2023/07/22 11:12:08;;;;;;;3.00;2.80;;;24.10;99.90;;;;;;5059147;28;20237;-65
2023/07/22 11:14:38;;;;;;;4.40;2.95;;;24.30;99.90;;;;;;5068693;28;20269;-64
2023/07/22 11:17:08;;;;;;;3.22;2.92;;;24.30;99.90;;;;;;5057701;28;20224;-65
2023/07/22 11:19:36;;;;;;;5.40;2.90;;;24.30;99.90;;;;;;5062703;28;20236;-64
2023/07/22 11:22:04;;;;;;;7.82;3.10;;;24.20;99.90;;;;;;5065702;28;20669;-64
2023/07/22 11:24:33;;;;;;;3.75;3.35;;;24.10;99.90;;;;;;5054756;28;20681;-64
2023/07/22 11:27:03;;;;;;;3.28;3.05;;;24.10;99.90;;;;;;5067757;28;20194;-64
2023/07/22 11:29:31;;;;;;;2.83;2.63;;;24.30;99.90;;;;;;5060926;28;20274;-64
2023/07/22 11:31:59;;;;;;;2.90;2.60;;;24.60;99.90;;;;;;5059324;28;20748;-64
2023/07/22 11:34:28;;;;;;;3.50;2.80;;;25.10;99.90;;;;;;5068378;28;20235;-64
2023/07/22 11:36:58;;;;;;;2.80;2.65;;;25.70;99.90;;;;;;5039977;28;20236;-64
2023/07/22 11:39:27;;;;;;;4.72;2.40;;;26.10;99.90;;;;;;5064045;28;20243;-64
2023/07/22 11:41:54;;;;;;;3.58;2.92;;;26.50;99.90;;;;;;5063891;28;20216;-64
2023/07/22 11:44:24;;;;;;;5.65;3.00;;;26.70;99.90;;;;;;5056349;28;20201;-65
2023/07/22 11:46:54;;;;;;;3.25;3.03;;;26.80;99.90;;;;;;5069147;28;20229;-64
2023/07/22 11:49:26;;;;;;;5.82;3.00;;;26.70;99.90;;;;;;5060517;28;20283;-64
2023/07/22 11:51:59;;;;;;;3.65;3.35;;;26.30;99.90;;;;;;5059970;28;20233;-65
2023/07/22 11:54:27;;;;;;;3.83;2.85;;;25.90;99.90;;;;;;5068109;28;20876;-64
2023/07/22 11:56:55;;;;;;;3.10;2.63;;;25.90;99.90;;;;;;5039076;28;20228;-65
2023/07/22 11:59:36;;;;;;;3.13;2.92;;;26.40;99.90;;;;;;5070709;28;20291;-64
2023/07/22 12:02:05;;;;;;;6.13;3.38;;;27.00;99.90;;;;;;5058389;28;20221;-64
2023/07/22 12:04:34;;;;;;;5.22;2.97;;;27.00;99.90;;;;;;5055068;28;20205;-63
2023/07/22 12:07:04;;;;;;;5.05;3.28;;;26.80;99.90;;;;;;5056281;28;20197;-64
2023/07/22 12:09:32;;;;;;;2.88;2.67;;;26.30;99.90;;;;;;5062397;28;20688;-64
2023/07/22 12:12:00;;;;;;;3.00;2.67;;;26.00;99.90;;;;;;5064566;28;20204;-63
2023/07/22 12:14:37;;;;;;;3.60;3.00;;;25.70;99.90;;;;;;5055124;28;20201;-63
2023/07/22 12:17:08;;;;;;;3.08;2.88;;;25.40;99.90;;;;;;5066609;28;20279;-64
2023/07/22 12:19:36;;;;;;;6.53;3.17;;;25.30;99.90;;;;;;5060912;28;20205;-64
2023/07/22 12:22:06;;;;;;;3.80;3.10;;;25.50;99.90;;;;;;5057925;28;20225;-64
2023/07/22 12:24:34;;;;;;;4.35;2.72;;;25.90;99.90;;;;;;5067738;28;20283;-63
2023/07/22 12:27:03;;;;;;;3.28;3.03;;;26.40;99.90;;;;;;5056238;28;20280;-64
2023/07/22 12:29:31;;;;;;;4.97;3.10;;;26.80;99.90;;;;;;5062907;28;20243;-64
2023/07/22 12:31:58;;;;;;;4.10;2.90;;;27.00;99.90;;;;;;5063557;28;20231;-64
2023/07/22 12:34:26;;;;;;;3.25;3.03;;;26.80;99.90;;;;;;5054836;28;20205;-64
2023/07/22 12:36:54;;;;;;;5.55;3.08;;;26.50;99.90;;;;;;5042275;28;20255;-64
2023/07/22 12:39:24;;;;;;;4.40;2.83;;;26.60;99.90;;;;;;5068270;28;20259;-65
2023/07/22 12:41:51;;;;;;;8.80;3.10;;;27.00;99.90;;;;;;5066666;28;20307;-65
2023/07/22 12:44:19;;;;;;;4.05;3.20;;;26.90;99.90;;;;;;5059990;28;20252;-65
2023/07/22 12:46:47;;;;;;;3.10;2.90;;;26.60;99.90;;;;;;5071210;28;20710;-65
2023/07/22 12:49:15;;;;;;;3.35;2.80;;;26.40;99.90;;;;;;5061671;28;20743;-65
2023/07/22 12:51:43;;;;;;;4.18;3.20;;;26.20;99.90;;;;;;5063845;28;20225;-65
2023/07/22 12:54:11;;;;;;;6.40;2.97;;;26.30;99.90;;;;;;5067767;28;20299;-65
2023/07/22 12:56:42;;;;;;;3.25;2.95;;;26.50;99.90;;;;;;5056440;28;20237;-65
2023/07/22 12:59:10;;;;;;;3.38;3.08;;;26.50;99.90;;;;;;5071113;28;20236;-65